Airfield :
LOGIN :

Register | Disclaimer

   EN    FR    IT 

 










Legend :    VFR   Marginal VFR   IFR   Intensive IFR   Very Intensive IFR
Visi :
Ceiling :
>= 8 km
>= 3000ft
5 to 8 km
1000 to 3000 ft
1500m to 5 km
500 to 1000 ft
800 to 1500m
200 to 500 ft
< 800m
< 200 ft
Symbols :   Thunderstorms  Fog  Heavy snow  Heavy precipitations  Wind > 20 kt
SIGMETs :     Misc.  Thunderstorms  Icing  Turbulence  Mountain Waves  Volcanic Ashes






- Airport Elevation : 1213 ft
- IATA code : SCQ


LEST - Santiago de Compostela

CURRENT METAR :
  • 271900Z 27005KT 230V300 9999 FEW010 SCT023 09/08 Q1023 NOSIG

EXPIRED METARs :
  • 271830Z 27005KT 210V320 9999 FEW010 SCT023 09/08 Q1022 NOSIG
  • 271800Z 26005KT 210V300 9999 FEW010 SCT023 10/08 Q1022 NOSIG
  • 271730Z 28004KT 250V310 9999 SCT020 10/08 Q1022 NOSIG
  • 271700Z 27003KT 9999 FEW010 10/08 Q1022 NOSIG
  • 271630Z 30005KT 260V330 9999 FEW007 SCT020 10/08 Q1022 NOSIG

TAF TAF LEST
Valid from the 27 at 18:00 until the 28 at 18:00 UTC


271700Z 2718/2818 23008KT 9999 FEW020 BKN030 TX12/2813Z TN07/2807Z
PROB40
TEMPO 2718/2721 3000 RA BKN010
PROB30
TEMPO 2721/2815 3000 RA BR BKN010
PROB40
TEMPO 2811/2818 30010KT



MET'MAP, your aeronautical weather chart ! - Copyright ORBIFLY December 2007 - Disclaimer

ORBIFLY MET'MAP TEAM :

Programming & Development : Alexandra Zaïnal
Original concept : Baudouin d'Aumeries
Technical & hardware support : Manuel Goepfert
Assistance : Marc-Olivier Méhu




SOURCES & CREDITS :

   NOAA